Alcot, South Carolina
Current Conditions -  °F | °C
As of 6:35 PM on Saturday 20 Dec 2014 (Local Time) from KHVS Reporting Station
Overcast Overcast  
Wind Chill: 41°   Ceiling: 6000
Heat Index: 45°   Visibility: 10mi
Dew Point: 36°   Wind: 6mph
Humidity: 71%   Direction: 50°NE
Pressure: 30.25"   Gusts: NA
Location:  34.2324°N, 80.2824°W
Report Text: KHVS 202335Z AUTO 05005KT 10SM SCT024 OVC060 07/02 A3025 RMK AO2
Loading
Personal Weather Stations






























Interactive Weather Map New forecast layout! Learn more

10-Day Weather Forecast

Advertisements
Track Severe Weather on mobile